createdAt,value
2023-03-06T00:01:10.872Z,40.05
2023-03-06T00:03:38.461Z,39.40
2023-03-06T00:06:06.207Z,39.25
2023-03-06T00:08:34.005Z,38.92
2023-03-06T00:11:01.482Z,40.28
2023-03-06T00:13:30.610Z,39.80
2023-03-06T00:16:00.853Z,38.90
2023-03-06T00:18:28.185Z,38.67
2023-03-06T00:20:55.631Z,37.90
2023-03-06T00:23:23.287Z,37.30
2023-03-06T00:25:50.711Z,39.53
2023-03-06T00:28:17.949Z,39.70
2023-03-06T00:30:46.415Z,40.58
2023-03-06T00:33:13.652Z,39.75
2023-03-06T00:35:42.678Z,38.50
2023-03-06T00:38:14.673Z,38.03
2023-03-06T00:40:41.949Z,40.03
2023-03-06T00:43:09.375Z,38.70
2023-03-06T00:45:37.281Z,40.13
2023-03-06T00:48:05.217Z,40.10
2023-03-06T00:50:32.880Z,38.50
2023-03-06T00:53:00.373Z,36.80
2023-03-06T00:55:29.305Z,37.17
2023-03-06T00:57:56.615Z,38.95
2023-03-06T01:00:23.927Z,39.20
2023-03-06T01:02:53.517Z,38.22
2023-03-06T01:05:22.564Z,38.08
2023-03-06T01:07:49.809Z,38.92
2023-03-06T01:10:17.260Z,36.17
2023-03-06T01:12:45.716Z,37.80
2023-03-06T01:15:13.990Z,37.20
2023-03-06T01:17:41.484Z,37.78
2023-03-06T01:20:13.788Z,36.13
2023-03-06T01:22:42.977Z,35.88
2023-03-06T01:25:10.975Z,36.28
2023-03-06T01:27:38.389Z,37.42
2023-03-06T01:30:06.298Z,34.35
2023-03-06T01:32:33.632Z,34.88
2023-03-06T01:35:01.005Z,36.10
2023-03-06T01:37:28.337Z,37.95
2023-03-06T01:39:56.652Z,35.20
2023-03-06T01:42:24.068Z,36.45
2023-03-06T01:45:08.399Z,36.70
2023-03-06T01:47:35.739Z,35.45
2023-03-06T01:50:04.472Z,37.20
2023-03-06T01:52:36.325Z,35.35
2023-03-06T01:55:12.020Z,35.10
2023-03-06T01:57:44.646Z,35.45
2023-03-06T02:00:19.149Z,37.80
2023-03-06T02:03:02.591Z,37.33
2023-03-06T02:05:30.426Z,36.38
2023-03-06T02:07:58.103Z,36.60
2023-03-06T02:10:25.756Z,35.22
2023-03-06T02:12:53.375Z,36.58
2023-03-06T02:15:23.255Z,36.22
2023-03-06T02:17:52.123Z,37.13
2023-03-06T02:20:29.418Z,36.92
2023-03-06T02:23:11.477Z,36.08
2023-03-06T02:25:45.241Z,37.72
2023-03-06T02:28:16.297Z,37.28
2023-03-06T02:30:45.476Z,37.72
2023-03-06T02:33:15.395Z,39.22
2023-03-06T02:36:03.927Z,38.53
2023-03-06T02:38:40.175Z,39.83
2023-03-06T02:41:08.834Z,39.78
2023-03-06T02:43:38.584Z,39.78
2023-03-06T02:46:06.863Z,39.47
2023-03-06T02:48:34.235Z,39.08
2023-03-06T02:51:01.779Z,39.85
2023-03-06T02:53:29.097Z,37.15
2023-03-06T02:55:56.325Z,38.60
2023-03-06T02:58:23.790Z,39.92
2023-03-06T03:00:51.302Z,40.50
2023-03-06T03:03:20.065Z,39.20
2023-03-06T03:05:47.445Z,39.35
2023-03-06T03:08:23.034Z,40.65
2023-03-06T03:10:55.967Z,40.03
2023-03-06T03:13:24.524Z,39.83
2023-03-06T03:16:04.773Z,38.28
2023-03-06T03:18:32.593Z,38.30
2023-03-06T03:20:59.950Z,38.95
2023-03-06T03:23:27.679Z,36.78
2023-03-06T03:26:07.185Z,37.35
2023-03-06T03:28:36.204Z,37.28
2023-03-06T03:31:08.685Z,37.75
2023-03-06T03:33:36.180Z,37.83
2023-03-06T03:36:06.017Z,37.72
2023-03-06T03:38:35.464Z,37.00
2023-03-06T03:41:03.856Z,38.25
2023-03-06T03:43:32.073Z,37.38
2023-03-06T03:46:00.650Z,36.88
2023-03-06T03:48:28.778Z,38.17
2023-03-06T03:51:05.546Z,36.25
2023-03-06T03:53:34.746Z,37.65
2023-03-06T03:56:03.769Z,37.90
2023-03-06T03:58:33.437Z,38.28
2023-03-06T04:01:01.264Z,37.85
2023-03-06T04:03:28.951Z,37.83
2023-03-06T04:05:57.923Z,36.72
2023-03-06T04:08:26.980Z,37.25
2023-03-06T04:10:54.872Z,36.85
2023-03-06T04:13:23.856Z,38.22
2023-03-06T04:15:53.739Z,39.92
2023-03-06T04:18:24.138Z,37.15
2023-03-06T04:20:54.019Z,37.22
2023-03-06T04:23:22.890Z,38.90
2023-03-06T04:25:50.984Z,37.92
2023-03-06T04:28:18.913Z,38.08
2023-03-06T04:30:46.228Z,38.50
2023-03-06T04:33:13.594Z,38.70
2023-03-06T04:35:42.466Z,39.25
2023-03-06T04:38:14.861Z,40.65
2023-03-06T04:40:44.474Z,37.53
2023-03-06T04:43:12.686Z,38.80
2023-03-06T04:45:39.942Z,38.17
2023-03-06T04:48:07.574Z,40.08
2023-03-06T04:50:35.262Z,39.47
2023-03-06T04:53:03.541Z,39.80
2023-03-06T04:55:31.005Z,38.38
2023-03-06T04:57:58.979Z,38.03
2023-03-06T05:00:31.709Z,38.63
2023-03-06T05:03:00.758Z,38.70
2023-03-06T05:05:28.386Z,36.83
2023-03-06T05:07:55.740Z,38.03
2023-03-06T05:10:23.485Z,38.05
2023-03-06T05:12:50.773Z,38.28
2023-03-06T05:15:18.648Z,38.92
2023-03-06T05:17:47.424Z,36.97
2023-03-06T05:20:15.628Z,37.78
2023-03-06T05:22:44.191Z,37.05
2023-03-06T05:25:11.983Z,35.90
2023-03-06T05:27:39.710Z,36.60
2023-03-06T05:30:08.026Z,36.83
2023-03-06T05:32:35.889Z,38.22
2023-03-06T05:35:05.876Z,36.10
2023-03-06T05:37:33.780Z,36.25
2023-03-06T05:40:04.025Z,36.58
2023-03-06T05:42:31.298Z,38.22
2023-03-06T05:44:58.594Z,37.30
2023-03-06T05:47:25.928Z,37.55
2023-03-06T05:49:53.168Z,37.50
2023-03-06T05:52:20.529Z,37.78
2023-03-06T05:54:52.257Z,38.17
2023-03-06T05:57:21.124Z,37.75
2023-03-06T05:59:49.488Z,37.72
2023-03-06T06:02:18.205Z,37.88
2023-03-06T06:04:45.645Z,38.25
2023-03-06T06:07:14.978Z,37.17
2023-03-06T06:09:45.334Z,37.47
2023-03-06T06:12:13.510Z,37.83
2023-03-06T06:14:40.776Z,37.65
2023-03-06T06:17:08.260Z,37.10
2023-03-06T06:19:35.705Z,38.45
2023-03-06T06:22:03.754Z,39.33
2023-03-06T06:24:32.171Z,39.35
2023-03-06T06:27:01.996Z,39.28
2023-03-06T06:29:31.512Z,40.88
2023-03-06T06:31:59.072Z,42.50
2023-03-06T06:34:26.987Z,42.63
2023-03-06T06:36:54.617Z,44.10
2023-03-06T06:39:23.721Z,41.78
2023-03-06T06:42:09.682Z,41.50
2023-03-06T06:44:40.983Z,41.63
2023-03-06T06:47:25.420Z,44.45
2023-03-06T06:49:55.360Z,42.40
2023-03-06T06:52:24.044Z,43.70
2023-03-06T06:54:51.965Z,41.83
2023-03-06T06:57:19.208Z,43.75
2023-03-06T06:59:46.543Z,43.53
2023-03-06T07:02:15.767Z,43.10
2023-03-06T07:05:00.421Z,42.30
2023-03-06T07:07:30.843Z,42.63
2023-03-06T07:09:59.315Z,43.20
2023-03-06T07:12:26.727Z,42.90
2023-03-06T07:14:54.017Z,43.15
2023-03-06T07:17:21.438Z,43.70
2023-03-06T07:19:48.744Z,43.03
2023-03-06T07:22:16.021Z,41.17
2023-03-06T07:24:43.271Z,39.95
2023-03-06T07:27:10.672Z,40.67
2023-03-06T07:29:37.876Z,41.05
2023-03-06T07:32:05.595Z,40.15
2023-03-06T07:34:32.848Z,39.75
2023-03-06T07:37:00.188Z,40.33
2023-03-06T07:39:28.215Z,39.30
2023-03-06T07:41:56.012Z,42.40
2023-03-06T07:44:23.257Z,40.38
2023-03-06T07:46:50.634Z,44.15
2023-03-06T07:49:18.108Z,41.90
2023-03-06T07:51:45.506Z,42.03
2023-03-06T07:54:13.030Z,42.53
2023-03-06T07:56:40.320Z,41.53
2023-03-06T07:59:07.706Z,40.72
2023-03-06T08:01:36.356Z,40.47
2023-03-06T08:04:03.916Z,42.15
2023-03-06T08:06:32.227Z,42.88
2023-03-06T08:08:59.653Z,45.30
2023-03-06T08:11:29.905Z,45.70
2023-03-06T08:13:58.618Z,42.97
2023-03-06T08:16:29.024Z,44.28
2023-03-06T08:18:57.268Z,44.60
2023-03-06T08:21:26.946Z,45.55
2023-03-06T08:23:54.929Z,46.67
2023-03-06T08:26:31.508Z,47.50
2023-03-06T08:29:01.222Z,46.13
2023-03-06T08:31:31.148Z,47.35
2023-03-06T08:34:01.289Z,47.58
2023-03-06T08:36:29.217Z,47.92
2023-03-06T08:38:56.777Z,47.97
2023-03-06T08:41:24.273Z,47.47
2023-03-06T08:43:53.049Z,47.03
2023-03-06T08:46:23.859Z,48.42
2023-03-06T08:48:51.532Z,49.50
2023-03-06T08:51:19.980Z,48.70
2023-03-06T08:53:47.563Z,48.22
2023-03-06T08:56:20.056Z,47.60
2023-03-06T08:58:47.444Z,47.08
2023-03-06T09:01:21.497Z,49.95
2023-03-06T09:03:49.774Z,48.10
2023-03-06T09:06:17.471Z,49.15
2023-03-06T09:08:44.887Z,49.78
2023-03-06T09:11:14.854Z,48.50
2023-03-06T09:13:43.629Z,49.20
2023-03-06T09:16:11.786Z,50.78
2023-03-06T09:18:39.483Z,50.75
2023-03-06T09:21:07.852Z,50.35
2023-03-06T09:23:36.292Z,51.00
2023-03-06T09:26:03.869Z,51.53
2023-03-06T09:28:31.671Z,50.70
2023-03-06T09:30:59.207Z,51.80
2023-03-06T09:33:28.640Z,52.45
2023-03-06T09:35:56.923Z,51.35
2023-03-06T09:38:27.480Z,55.08
2023-03-06T09:40:57.714Z,55.78
2023-03-06T09:43:47.220Z,53.45
2023-03-06T09:46:38.303Z,52.72
2023-03-06T09:49:30.773Z,51.60
2023-03-06T09:52:25.748Z,49.40
2023-03-06T09:54:59.446Z,48.00
2023-03-06T09:57:35.234Z,49.05
2023-03-06T10:00:19.376Z,46.67
2023-03-06T10:02:56.959Z,48.10
2023-03-06T10:05:29.076Z,46.00
2023-03-06T10:08:06.545Z,44.50
2023-03-06T10:10:59.236Z,41.22
2023-03-06T10:13:47.359Z,41.17
2023-03-06T10:16:30.887Z,39.55
2023-03-06T10:19:12.245Z,40.13
2023-03-06T10:22:05.070Z,41.08
2023-03-06T10:24:45.547Z,41.90
2023-03-06T10:27:21.682Z,40.90
2023-03-06T10:30:02.528Z,38.30
2023-03-06T10:32:58.431Z,40.45
2023-03-06T10:35:32.680Z,39.40
2023-03-06T10:38:17.425Z,38.10
2023-03-06T10:40:54.315Z,38.30
2023-03-06T10:43:22.975Z,38.60
2023-03-06T10:45:52.457Z,38.42
2023-03-06T10:48:23.000Z,39.67
2023-03-06T10:50:51.480Z,37.22
2023-03-06T10:53:31.691Z,37.58
2023-03-06T10:56:00.646Z,38.58
2023-03-06T10:58:30.932Z,37.20
2023-03-06T11:01:03.168Z,37.70
2023-03-06T11:03:31.271Z,36.65
2023-03-06T11:06:01.752Z,36.45
2023-03-06T11:08:30.190Z,37.63
2023-03-06T11:11:00.027Z,38.75
2023-03-06T11:13:30.998Z,38.00
2023-03-06T11:16:16.135Z,37.55
2023-03-06T11:19:06.850Z,39.25
2023-03-06T11:21:36.522Z,36.53
2023-03-06T11:24:19.874Z,38.30
2023-03-06T11:26:57.929Z,37.50
2023-03-06T11:29:43.351Z,37.33
2023-03-06T11:32:20.139Z,38.65
2023-03-06T11:34:56.527Z,39.17
2023-03-06T11:37:25.949Z,38.38
2023-03-06T11:40:11.499Z,36.65
2023-03-06T11:42:57.009Z,37.05
2023-03-06T11:45:31.839Z,36.95
2023-03-06T11:48:20.947Z,38.42
2023-03-06T11:50:49.753Z,38.60
2023-03-06T11:53:23.158Z,37.20
2023-03-06T11:55:50.394Z,38.70
2023-03-06T11:58:35.896Z,35.92
2023-03-06T12:01:47.729Z,36.05
2023-03-06T12:04:46.025Z,33.35
2023-03-06T12:07:32.952Z,32.22
2023-03-06T12:10:16.873Z,33.92
2023-03-06T12:13:05.371Z,33.10
2023-03-06T12:15:58.738Z,34.22
2023-03-06T12:18:53.893Z,33.13
2023-03-06T12:21:43.089Z,31.77
2023-03-06T12:24:37.210Z,30.75
2023-03-06T12:27:25.500Z,31.42
2023-03-06T12:30:11.616Z,31.58
2023-03-06T12:32:57.496Z,33.90
2023-03-06T12:35:49.254Z,31.02
2023-03-06T12:38:19.564Z,31.92
2023-03-06T12:41:15.586Z,31.10
2023-03-06T12:43:48.768Z,31.17
2023-03-06T12:46:20.484Z,28.83
2023-03-06T12:48:57.588Z,29.35
2023-03-06T12:51:25.051Z,29.38
2023-03-06T12:53:53.377Z,29.60
2023-03-06T12:56:23.419Z,29.98
2023-03-06T12:58:52.993Z,30.58
2023-03-06T13:01:55.712Z,30.00
2023-03-06T13:04:45.995Z,31.25
2023-03-06T13:07:40.914Z,32.20
2023-03-06T13:10:20.289Z,31.55
2023-03-06T13:13:01.186Z,31.70
2023-03-06T13:15:43.190Z,29.42
2023-03-06T13:18:22.773Z,24.38
2023-03-06T13:20:51.344Z,23.30
2023-03-06T13:23:33.578Z,25.10
2023-03-06T13:26:04.234Z,25.73
2023-03-06T13:28:46.122Z,24.52
2023-03-06T13:31:38.340Z,25.63
2023-03-06T13:34:31.726Z,25.45
2023-03-06T13:37:17.321Z,26.45
2023-03-06T13:39:59.652Z,26.67
2023-03-06T13:42:56.240Z,25.75
2023-03-06T13:45:37.965Z,27.20
2023-03-06T13:48:30.334Z,25.63
2023-03-06T13:50:55.514Z,27.73
2023-03-06T13:53:31.386Z,25.58
2023-03-06T13:56:09.364Z,25.05
2023-03-06T13:58:48.124Z,25.40
2023-03-06T14:01:29.304Z,23.38
2023-03-06T14:04:08.622Z,23.02
2023-03-06T14:06:35.796Z,21.65
2023-03-06T14:09:18.812Z,22.65
2023-03-06T14:11:51.758Z,22.95
2023-03-06T14:14:26.701Z,24.50
2023-03-06T14:16:54.432Z,27.05
2023-03-06T14:19:22.670Z,26.85
2023-03-06T14:21:57.571Z,27.17
2023-03-06T14:24:41.329Z,24.40
2023-03-06T14:27:17.770Z,26.75
2023-03-06T14:29:48.520Z,26.45
2023-03-06T14:32:22.384Z,27.65
2023-03-06T14:34:49.757Z,26.33
2023-03-06T14:37:24.570Z,28.17
2023-03-06T14:39:52.403Z,26.30
2023-03-06T14:42:25.384Z,27.73
2023-03-06T14:45:18.928Z,27.67
2023-03-06T14:47:53.267Z,27.17
2023-03-06T14:50:26.496Z,26.23
2023-03-06T14:52:57.902Z,28.23
2023-03-06T14:55:27.484Z,28.52
2023-03-06T14:58:18.653Z,29.33
2023-03-06T15:00:50.031Z,28.10
2023-03-06T15:03:28.196Z,27.75
2023-03-06T15:05:56.404Z,27.33
2023-03-06T15:08:31.946Z,25.05
2023-03-06T15:11:01.838Z,24.70
2023-03-06T15:13:30.951Z,26.25
2023-03-06T15:16:20.874Z,28.23
2023-03-06T15:18:57.128Z,26.23
2023-03-06T15:23:53.815Z,25.35
2023-03-06T15:26:36.853Z,26.08
2023-03-06T15:29:10.730Z,24.60
2023-03-06T15:31:43.384Z,25.25
2023-03-06T15:34:10.794Z,23.65
2023-03-06T15:36:43.833Z,23.88
2023-03-06T15:39:37.941Z,23.42
2023-03-06T15:42:26.712Z,23.02
2023-03-06T15:45:02.923Z,21.60
2023-03-06T15:49:57.435Z,18.83
2023-03-06T15:52:24.771Z,17.98
2023-03-06T15:54:52.104Z,16.85
2023-03-06T15:57:24.031Z,16.55
2023-03-06T15:59:51.957Z,17.25
2023-03-06T16:02:24.191Z,16.85
2023-03-06T16:04:52.008Z,16.65
2023-03-06T16:07:20.487Z,15.73
2023-03-06T16:09:48.203Z,16.55
2023-03-06T16:12:18.586Z,16.73
2023-03-06T16:14:47.618Z,16.83
2023-03-06T16:17:15.749Z,16.75
2023-03-06T16:19:43.495Z,17.25
2023-03-06T16:22:11.119Z,18.08
2023-03-06T16:24:38.463Z,16.52
2023-03-06T16:27:06.937Z,17.42
2023-03-06T16:29:34.972Z,16.35
2023-03-06T16:32:02.741Z,15.85
2023-03-06T16:34:30.043Z,16.92
2023-03-06T16:36:57.465Z,16.83
2023-03-06T16:39:24.823Z,17.48
2023-03-06T16:41:52.280Z,18.15
2023-03-06T16:44:20.586Z,17.55
2023-03-06T16:46:50.113Z,17.30
2023-03-06T16:49:23.388Z,17.75
2023-03-06T16:51:51.775Z,16.15
2023-03-06T16:54:19.730Z,17.70
2023-03-06T16:56:46.989Z,18.52
2023-03-06T16:59:14.887Z,17.88
2023-03-06T17:01:43.490Z,19.15
2023-03-06T17:04:11.534Z,19.08
2023-03-06T17:06:40.062Z,18.60
2023-03-06T17:09:08.008Z,19.02
2023-03-06T17:11:42.290Z,18.30
2023-03-06T17:14:10.419Z,19.20
2023-03-06T17:16:40.618Z,20.40
2023-03-06T17:19:08.363Z,21.60
2023-03-06T17:21:38.287Z,21.27
2023-03-06T17:24:06.238Z,23.13
2023-03-06T17:26:33.950Z,25.55
2023-03-06T17:29:01.231Z,23.58
2023-03-06T17:31:28.918Z,23.10
2023-03-06T17:34:00.495Z,24.30
2023-03-06T17:36:29.312Z,24.35
2023-03-06T17:38:58.655Z,28.52
2023-03-06T17:41:26.403Z,32.03
2023-03-06T17:43:56.071Z,29.45
2023-03-06T17:46:23.383Z,31.45
2023-03-06T17:48:50.701Z,24.27
2023-03-06T17:51:18.005Z,23.33
2023-03-06T17:53:45.255Z,22.75
2023-03-06T17:56:14.148Z,22.58
2023-03-06T17:58:41.586Z,23.52
2023-03-06T18:01:20.416Z,24.52
2023-03-06T18:03:50.077Z,26.45
2023-03-06T18:06:18.826Z,29.90
2023-03-06T18:08:46.540Z,32.97
2023-03-06T18:11:14.263Z,30.63
2023-03-06T18:13:44.879Z,29.60
2023-03-06T18:16:18.390Z,23.20
2023-03-06T18:18:46.675Z,28.50
2023-03-06T18:21:16.691Z,21.23
2023-03-06T18:23:44.460Z,20.75
2023-03-06T18:26:25.034Z,21.88
2023-03-06T18:28:54.707Z,21.35
2023-03-06T18:31:34.672Z,22.42
2023-03-06T18:34:08.032Z,20.65
2023-03-06T18:36:36.426Z,21.65
2023-03-06T18:39:07.150Z,22.67
2023-03-06T18:41:34.617Z,20.30
2023-03-06T18:44:02.384Z,21.48
2023-03-06T18:46:32.139Z,21.75
2023-03-06T18:49:00.121Z,21.45
2023-03-06T18:51:27.725Z,22.48
2023-03-06T18:54:00.503Z,21.23
2023-03-06T18:56:27.776Z,21.85
2023-03-06T18:58:55.195Z,21.98
2023-03-06T19:01:23.159Z,22.88
2023-03-06T19:03:50.649Z,23.85
2023-03-06T19:06:18.762Z,23.27
2023-03-06T19:08:46.169Z,22.52
2023-03-06T19:11:15.488Z,23.25
2023-03-06T19:13:43.505Z,24.02
2023-03-06T19:16:18.816Z,23.13
2023-03-06T19:18:46.203Z,22.37
2023-03-06T19:21:16.341Z,24.40
2023-03-06T19:23:44.024Z,23.73
2023-03-06T19:26:11.875Z,24.30
2023-03-06T19:28:40.847Z,23.75
2023-03-06T19:31:10.320Z,25.38
2023-03-06T19:33:38.042Z,24.65
2023-03-06T19:36:07.544Z,25.25
2023-03-06T19:38:34.963Z,25.05
2023-03-06T19:41:02.277Z,24.75
2023-03-06T19:43:30.449Z,24.88
2023-03-06T19:45:58.018Z,24.52
2023-03-06T19:48:25.304Z,25.00
2023-03-06T19:50:52.558Z,26.98
2023-03-06T19:53:19.955Z,25.15
2023-03-06T19:55:47.896Z,25.00
2023-03-06T19:58:15.168Z,24.50
2023-03-06T20:00:42.892Z,26.15
2023-03-06T20:03:10.212Z,25.20
2023-03-06T20:05:37.437Z,25.80
2023-03-06T20:08:05.049Z,24.92
2023-03-06T20:10:35.940Z,26.00
2023-03-06T20:13:03.843Z,26.42
2023-03-06T20:15:31.291Z,26.15
2023-03-06T20:17:58.582Z,27.33
2023-03-06T20:20:25.892Z,27.15
2023-03-06T20:22:53.168Z,25.38
2023-03-06T20:25:20.465Z,25.00
2023-03-06T20:27:47.778Z,25.83
2023-03-06T20:30:15.323Z,25.73
2023-03-06T20:32:42.650Z,26.30
2023-03-06T20:35:10.036Z,25.77
2023-03-06T20:37:38.216Z,25.88
2023-03-06T20:40:06.302Z,27.00
2023-03-06T20:42:33.705Z,26.10
2023-03-06T20:45:00.962Z,25.92
2023-03-06T20:47:28.204Z,26.35
2023-03-06T20:49:55.876Z,26.70
2023-03-06T20:52:23.219Z,25.45
2023-03-06T20:54:50.587Z,28.17
2023-03-06T20:57:18.062Z,31.70
2023-03-06T20:59:45.443Z,30.83
2023-03-06T21:02:14.798Z,33.28
2023-03-06T21:04:42.252Z,31.13
2023-03-06T21:07:09.538Z,36.67
2023-03-06T21:09:37.835Z,35.97
2023-03-06T21:12:06.040Z,36.90
2023-03-06T21:14:33.360Z,34.38
2023-03-06T21:17:01.329Z,34.38
2023-03-06T21:19:28.647Z,34.63
2023-03-06T21:21:55.978Z,34.85
2023-03-06T21:24:23.230Z,34.05
2023-03-06T21:26:51.305Z,34.40
2023-03-06T21:29:18.718Z,34.05
2023-03-06T21:31:46.049Z,31.52
2023-03-06T21:34:13.425Z,32.03
2023-03-06T21:36:40.726Z,32.42
2023-03-06T21:39:08.007Z,32.20
2023-03-06T21:41:35.390Z,32.03
2023-03-06T21:44:05.444Z,31.17
2023-03-06T21:46:34.058Z,31.10
2023-03-06T21:49:06.608Z,31.05
2023-03-06T21:51:33.930Z,31.45
2023-03-06T21:54:02.884Z,33.10
2023-03-06T21:56:30.221Z,31.98
2023-03-06T21:58:58.209Z,31.70
2023-03-06T22:01:28.320Z,33.10
2023-03-06T22:03:55.808Z,33.45
2023-03-06T22:06:25.369Z,34.00
2023-03-06T22:08:54.615Z,34.42
2023-03-06T22:11:24.146Z,33.72
2023-03-06T22:13:53.289Z,34.85
2023-03-06T22:16:20.818Z,33.78
2023-03-06T22:18:50.766Z,33.38
2023-03-06T22:21:21.095Z,34.88
2023-03-06T22:23:53.681Z,33.83
2023-03-06T22:26:21.546Z,34.88
2023-03-06T22:28:49.178Z,34.92
2023-03-06T22:31:19.045Z,32.97
2023-03-06T22:33:46.567Z,35.05
2023-03-06T22:36:18.634Z,34.30
2023-03-06T22:38:47.460Z,33.13
2023-03-06T22:41:17.794Z,35.65
2023-03-06T22:43:45.164Z,34.85
2023-03-06T22:46:16.032Z,34.33
2023-03-06T22:48:43.774Z,34.22
2023-03-06T22:51:17.496Z,35.42
2023-03-06T22:53:45.743Z,33.25
2023-03-06T22:56:15.942Z,35.50
2023-03-06T22:58:44.920Z,35.22
2023-03-06T23:01:17.911Z,35.00
2023-03-06T23:03:48.041Z,34.97
2023-03-06T23:06:24.714Z,36.42
2023-03-06T23:08:55.173Z,34.72
2023-03-06T23:11:23.969Z,34.15
2023-03-06T23:14:12.559Z,35.15
2023-03-06T23:16:58.275Z,33.92
2023-03-06T23:19:44.422Z,36.78
2023-03-06T23:22:30.067Z,39.13
2023-03-06T23:25:16.537Z,36.92
2023-03-06T23:27:43.790Z,35.92
2023-03-06T23:30:12.323Z,35.40
2023-03-06T23:32:39.629Z,36.53
2023-03-06T23:35:07.648Z,36.40
2023-03-06T23:37:35.028Z,36.50
2023-03-06T23:40:02.635Z,35.03
2023-03-06T23:42:30.916Z,35.35
2023-03-06T23:44:58.226Z,35.50
2023-03-06T23:47:25.635Z,35.78
2023-03-06T23:49:52.942Z,34.42
2023-03-06T23:52:20.177Z,33.97
2023-03-06T23:54:49.860Z,32.80
2023-03-06T23:57:17.307Z,35.85
2023-03-06T23:59:45.280Z,36.60
